sensor_id;sensor_type;location;lat;lon;timestamp;pressure;altitude;pressure_sealevel;temperature;humidity
43503;BME280;29098;48.184;16.298;2022-10-04T00:01:22;99899.97;;;11.40;82.07
43503;BME280;29098;48.184;16.298;2022-10-04T00:03:49;99904.81;;;11.36;82.32
43503;BME280;29098;48.184;16.298;2022-10-04T00:06:19;99905.97;;;11.33;82.19
43503;BME280;29098;48.184;16.298;2022-10-04T00:11:44;99905.81;;;11.27;82.61
43503;BME280;29098;48.184;16.298;2022-10-04T00:14:15;99904.16;;;11.26;82.62
43503;BME280;29098;48.184;16.298;2022-10-04T00:16:43;99897.25;;;11.24;82.56
43503;BME280;29098;48.184;16.298;2022-10-04T00:24:21;99894.25;;;11.28;82.94
43503;BME280;29098;48.184;16.298;2022-10-04T00:34:52;99885.19;;;11.30;82.59
43503;BME280;29098;48.184;16.298;2022-10-04T00:37:19;99884.38;;;11.30;82.41
43503;BME280;29098;48.184;16.298;2022-10-04T00:39:55;99880.25;;;11.27;82.76
43503;BME280;29098;48.184;16.298;2022-10-04T00:42:42;99882.06;;;11.27;82.57
43503;BME280;29098;48.184;16.298;2022-10-04T00:48:03;99877.09;;;11.32;82.27
43503;BME280;29098;48.184;16.298;2022-10-04T00:50:41;99878.09;;;11.31;82.47
43503;BME280;29098;48.184;16.298;2022-10-04T00:53:16;99882.69;;;11.37;81.74
43503;BME280;29098;48.184;16.298;2022-10-04T00:55:48;99880.38;;;11.34;81.92
43503;BME280;29098;48.184;16.298;2022-10-04T00:58:26;99880.38;;;11.34;81.90
43503;BME280;29098;48.184;16.298;2022-10-04T01:00:54;99886.13;;;11.37;81.55
43503;BME280;29098;48.184;16.298;2022-10-04T01:03:22;99880.53;;;11.41;81.85
43503;BME280;29098;48.184;16.298;2022-10-04T01:05:53;99883.31;;;11.39;81.31
43503;BME280;29098;48.184;16.298;2022-10-04T01:08:26;99882.63;;;11.45;81.12
43503;BME280;29098;48.184;16.298;2022-10-04T01:11:03;99884.28;;;11.46;80.78
43503;BME280;29098;48.184;16.298;2022-10-04T01:13:36;99881.63;;;11.46;80.35
43503;BME280;29098;48.184;16.298;2022-10-04T01:16:03;99877.00;;;11.48;79.99
43503;BME280;29098;48.184;16.298;2022-10-04T01:18:34;99875.34;;;11.47;80.12
43503;BME280;29098;48.184;16.298;2022-10-04T01:21:41;99866.75;;;11.54;79.77
43503;BME280;29098;48.184;16.298;2022-10-04T01:23:48;99870.72;;;11.49;79.86
43503;BME280;29098;48.184;16.298;2022-10-04T01:28:55;99865.09;;;11.53;79.30
43503;BME280;29098;48.184;16.298;2022-10-04T01:31:23;99869.84;;;11.57;78.76
43503;BME280;29098;48.184;16.298;2022-10-04T01:33:49;99874.31;;;11.57;78.20
43503;BME280;29098;48.184;16.298;2022-10-04T01:36:14;99864.69;;;11.64;77.86
43503;BME280;29098;48.184;16.298;2022-10-04T01:38:39;99861.41;;;11.62;78.00
43503;BME280;29098;48.184;16.298;2022-10-04T01:41:05;99859.41;;;11.64;77.77
43503;BME280;29098;48.184;16.298;2022-10-04T01:43:35;99854.13;;;11.64;77.51
43503;BME280;29098;48.184;16.298;2022-10-04T01:46:03;99859.06;;;11.67;77.59
43503;BME280;29098;48.184;16.298;2022-10-04T01:48:34;99853.44;;;11.70;77.18
43503;BME280;29098;48.184;16.298;2022-10-04T01:51:01;99855.97;;;11.63;77.01
43503;BME280;29098;48.184;16.298;2022-10-04T01:53:29;99843.94;;;11.61;77.01
43503;BME280;29098;48.184;16.298;2022-10-04T01:56:03;99855.75;;;11.65;76.58
43503;BME280;29098;48.184;16.298;2022-10-04T01:58:31;99840.22;;;11.70;76.06
43503;BME280;29098;48.184;16.298;2022-10-04T02:01:00;99840.38;;;11.69;75.80
43503;BME280;29098;48.184;16.298;2022-10-04T02:03:29;99839.03;;;11.73;76.33
43503;BME280;29098;48.184;16.298;2022-10-04T02:05:58;99841.78;;;11.79;75.44
43503;BME280;29098;48.184;16.298;2022-10-04T02:08:31;99834.88;;;11.78;74.97
43503;BME280;29098;48.184;16.298;2022-10-04T02:10:58;99833.41;;;11.76;75.08
43503;BME280;29098;48.184;16.298;2022-10-04T02:13:24;99845.91;;;11.82;74.96
43503;BME280;29098;48.184;16.298;2022-10-04T02:15:53;99834.16;;;11.85;74.35
43503;BME280;29098;48.184;16.298;2022-10-04T02:18:19;99831.16;;;11.88;73.94
43503;BME280;29098;48.184;16.298;2022-10-04T02:20:45;99828.97;;;11.91;74.11
43503;BME280;29098;48.184;16.298;2022-10-04T02:23:11;99827.25;;;11.84;74.79
43503;BME280;29098;48.184;16.298;2022-10-04T02:25:37;99820.31;;;11.83;74.58
43503;BME280;29098;48.184;16.298;2022-10-04T02:28:03;99817.84;;;11.81;74.93
43503;BME280;29098;48.184;16.298;2022-10-04T02:30:34;99821.50;;;11.80;74.53
43503;BME280;29098;48.184;16.298;2022-10-04T02:33:00;99818.56;;;11.75;75.07
43503;BME280;29098;48.184;16.298;2022-10-04T02:35:27;99817.72;;;11.74;75.55
43503;BME280;29098;48.184;16.298;2022-10-04T02:37:56;99819.38;;;11.75;75.50
43503;BME280;29098;48.184;16.298;2022-10-04T02:40:29;99819.72;;;11.72;75.73
43503;BME280;29098;48.184;16.298;2022-10-04T02:43:05;99825.53;;;11.68;75.84
43503;BME280;29098;48.184;16.298;2022-10-04T02:45:49;99832.66;;;11.67;75.95
43503;BME280;29098;48.184;16.298;2022-10-04T02:48:25;99835.00;;;11.62;75.87
43503;BME280;29098;48.184;16.298;2022-10-04T02:50:52;99834.00;;;11.63;76.39
43503;BME280;29098;48.184;16.298;2022-10-04T02:53:20;99836.63;;;11.63;76.08
43503;BME280;29098;48.184;16.298;2022-10-04T02:55:46;99847.56;;;11.60;76.82
43503;BME280;29098;48.184;16.298;2022-10-04T02:58:13;99854.81;;;11.58;76.84
43503;BME280;29098;48.184;16.298;2022-10-04T03:00:49;99855.66;;;11.58;76.84
43503;BME280;29098;48.184;16.298;2022-10-04T03:03:20;99843.50;;;11.49;77.45
43503;BME280;29098;48.184;16.298;2022-10-04T03:05:52;99842.34;;;11.51;77.66
43503;BME280;29098;48.184;16.298;2022-10-04T03:08:19;99826.53;;;11.43;77.66
43503;BME280;29098;48.184;16.298;2022-10-04T03:10:44;99841.69;;;11.49;77.66
43503;BME280;29098;48.184;16.298;2022-10-04T03:13:10;99843.78;;;11.54;77.54
43503;BME280;29098;48.184;16.298;2022-10-04T03:15:37;99845.91;;;11.59;77.24
43503;BME280;29098;48.184;16.298;2022-10-04T03:18:03;99834.41;;;11.51;77.78
43503;BME280;29098;48.184;16.298;2022-10-04T03:20:28;99844.16;;;11.51;77.63
43503;BME280;29098;48.184;16.298;2022-10-04T03:22:53;99845.47;;;11.47;78.09
43503;BME280;29098;48.184;16.298;2022-10-04T03:25:33;99842.50;;;11.50;77.82
43503;BME280;29098;48.184;16.298;2022-10-04T03:28:00;99842.38;;;11.43;77.90
43503;BME280;29098;48.184;16.298;2022-10-04T03:30:26;99841.81;;;11.56;77.39
43503;BME280;29098;48.184;16.298;2022-10-04T03:32:52;99845.31;;;11.48;77.71
43503;BME280;29098;48.184;16.298;2022-10-04T03:35:34;99849.91;;;11.55;77.36
43503;BME280;29098;48.184;16.298;2022-10-04T03:38:03;99842.50;;;11.50;77.74
43503;BME280;29098;48.184;16.298;2022-10-04T03:40:31;99840.97;;;11.56;77.75
43503;BME280;29098;48.184;16.298;2022-10-04T03:42:58;99835.59;;;11.49;77.90
43503;BME280;29098;48.184;16.298;2022-10-04T03:45:23;99837.94;;;11.44;78.29
43503;BME280;29098;48.184;16.298;2022-10-04T03:47:50;99846.38;;;11.39;78.30
43503;BME280;29098;48.184;16.298;2022-10-04T03:50:21;99849.00;;;11.39;78.49
43503;BME280;29098;48.184;16.298;2022-10-04T03:52:59;99847.66;;;11.43;78.28
43503;BME280;29098;48.184;16.298;2022-10-04T03:55:37;99850.19;;;11.36;78.79
43503;BME280;29098;48.184;16.298;2022-10-04T03:58:03;99849.31;;;11.44;78.05
43503;BME280;29098;48.184;16.298;2022-10-04T04:00:30;99847.16;;;11.48;77.96
43503;BME280;29098;48.184;16.298;2022-10-04T04:02:57;99849.72;;;11.56;77.62
43503;BME280;29098;48.184;16.298;2022-10-04T04:05:24;99841.56;;;11.43;78.00
43503;BME280;29098;48.184;16.298;2022-10-04T04:10:51;99842.03;;;11.46;78.14
43503;BME280;29098;48.184;16.298;2022-10-04T04:13:34;99842.03;;;11.46;77.92
43503;BME280;29098;48.184;16.298;2022-10-04T04:16:03;99828.69;;;11.40;77.94
43503;BME280;29098;48.184;16.298;2022-10-04T04:18:30;99835.59;;;11.49;77.79
43503;BME280;29098;48.184;16.298;2022-10-04T04:20:57;99835.59;;;11.49;77.70
43503;BME280;29098;48.184;16.298;2022-10-04T04:23:27;99834.28;;;11.45;77.85
43503;BME280;29098;48.184;16.298;2022-10-04T04:25:57;99837.09;;;11.43;78.32
43503;BME280;29098;48.184;16.298;2022-10-04T04:28:26;99844.38;;;11.41;77.77
43503;BME280;29098;48.184;16.298;2022-10-04T04:30:58;99837.56;;;11.47;77.41
43503;BME280;29098;48.184;16.298;2022-10-04T04:33:42;99838.03;;;11.50;77.11
43503;BME280;29098;48.184;16.298;2022-10-04T04:36:11;99854.34;;;11.54;77.31
43503;BME280;29098;48.184;16.298;2022-10-04T04:38:38;99839.69;;;11.51;77.11
43503;BME280;29098;48.184;16.298;2022-10-04T04:41:22;99844.44;;;11.56;77.04
43503;BME280;29098;48.184;16.298;2022-10-04T04:43:48;99849.97;;;11.46;77.74
43503;BME280;29098;48.184;16.298;2022-10-04T04:46:14;99841.19;;;11.46;77.62
43503;BME280;29098;48.184;16.298;2022-10-04T04:48:41;99852.91;;;11.51;77.80
43503;BME280;29098;48.184;16.298;2022-10-04T04:51:11;99853.25;;;11.48;77.63
43503;BME280;29098;48.184;16.298;2022-10-04T04:53:41;99860.81;;;11.51;77.78
43503;BME280;29098;48.184;16.298;2022-10-04T04:56:12;99852.66;;;11.38;78.67
43503;BME280;29098;48.184;16.298;2022-10-04T04:58:43;99857.25;;;11.44;78.12
43503;BME280;29098;48.184;16.298;2022-10-04T05:06:29;99864.78;;;11.47;78.42
43503;BME280;29098;48.184;16.298;2022-10-04T05:08:54;99866.81;;;11.45;78.68
43503;BME280;29098;48.184;16.298;2022-10-04T05:11:20;99867.81;;;11.44;78.53
43503;BME280;29098;48.184;16.298;2022-10-04T05:16:17;99878.06;;;11.39;78.49
43503;BME280;29098;48.184;16.298;2022-10-04T05:18:43;99875.34;;;11.47;78.57
43503;BME280;29098;48.184;16.298;2022-10-04T05:21:14;99883.28;;;11.47;78.47
43503;BME280;29098;48.184;16.298;2022-10-04T05:23:42;99884.44;;;11.45;79.27
43503;BME280;29098;48.184;16.298;2022-10-04T05:26:10;99882.91;;;11.50;78.45
43503;BME280;29098;48.184;16.298;2022-10-04T05:28:37;99878.47;;;11.51;78.60
43503;BME280;29098;48.184;16.298;2022-10-04T05:31:06;99883.59;;;11.53;78.75
43503;BME280;29098;48.184;16.298;2022-10-04T05:36:07;99885.91;;;11.47;78.92
43503;BME280;29098;48.184;16.298;2022-10-04T05:38:54;99891.69;;;11.51;79.03
43503;BME280;29098;48.184;16.298;2022-10-04T05:41:37;99894.31;;;11.51;79.00
43503;BME280;29098;48.184;16.298;2022-10-04T05:44:19;99904.34;;;11.56;78.87
43503;BME280;29098;48.184;16.298;2022-10-04T05:46:47;99907.03;;;11.47;79.33
43503;BME280;29098;48.184;16.298;2022-10-04T05:49:13;99915.91;;;11.55;78.89
43503;BME280;29098;48.184;16.298;2022-10-04T05:51:59;99920.66;;;11.59;79.04
43503;BME280;29098;48.184;16.298;2022-10-04T05:54:26;99921.78;;;11.65;78.58
43503;BME280;29098;48.184;16.298;2022-10-04T05:57:05;99919.50;;;11.62;78.70
43503;BME280;29098;48.184;16.298;2022-10-04T06:12:10;99929.72;;;11.65;78.80
43503;BME280;29098;48.184;16.298;2022-10-04T06:14:51;99929.59;;;11.58;79.10
43503;BME280;29098;48.184;16.298;2022-10-04T06:20:02;99939.09;;;11.68;79.09
43503;BME280;29098;48.184;16.298;2022-10-04T06:22:33;99943.59;;;11.67;78.69
43503;BME280;29098;48.184;16.298;2022-10-04T06:25:10;99938.94;;;11.69;78.71
43503;BME280;29098;48.184;16.298;2022-10-04T06:30:22;99953.78;;;11.70;79.19
43503;BME280;29098;48.184;16.298;2022-10-04T06:38:16;99955.84;;;11.83;78.24
43503;BME280;29098;48.184;16.298;2022-10-04T06:41:09;99955.06;;;11.74;78.72
43503;BME280;29098;48.184;16.298;2022-10-04T06:53:47;99972.47;;;11.92;78.58
43503;BME280;29098;48.184;16.298;2022-10-04T06:59:14;99974.22;;;12.00;77.66
43503;BME280;29098;48.184;16.298;2022-10-04T07:01:49;99979.16;;;12.11;78.03
43503;BME280;29098;48.184;16.298;2022-10-04T07:06:45;99982.59;;;12.12;77.50
43503;BME280;29098;48.184;16.298;2022-10-04T07:09:19;99977.47;;;12.18;77.41
43503;BME280;29098;48.184;16.298;2022-10-04T07:12:00;99981.91;;;12.18;77.27
43503;BME280;29098;48.184;16.298;2022-10-04T07:14:36;99991.13;;;12.22;76.97
43503;BME280;29098;48.184;16.298;2022-10-04T07:17:13;99992.00;;;12.14;77.12
43503;BME280;29098;48.184;16.298;2022-10-04T07:19:41;99995.13;;;12.18;76.99
43503;BME280;29098;48.184;16.298;2022-10-04T07:27:33;99993.81;;;12.37;76.07
43503;BME280;29098;48.184;16.298;2022-10-04T07:30:02;99998.00;;;12.31;76.06
43503;BME280;29098;48.184;16.298;2022-10-04T07:32:29;99994.81;;;12.36;75.60
43503;BME280;29098;48.184;16.298;2022-10-04T07:35:00;99993.66;;;12.39;75.44
43503;BME280;29098;48.184;16.298;2022-10-04T07:37:27;99994.47;;;12.39;75.68
43503;BME280;29098;48.184;16.298;2022-10-04T07:40:05;99998.03;;;12.46;75.96
43503;BME280;29098;48.184;16.298;2022-10-04T07:45:12;99999.28;;;12.59;75.18
43503;BME280;29098;48.184;16.298;2022-10-04T07:47:41;99997.97;;;12.55;75.18
43503;BME280;29098;48.184;16.298;2022-10-04T08:06:05;100016.75;;;12.83;74.19
43503;BME280;29098;48.184;16.298;2022-10-04T08:08:43;100018.94;;;12.95;73.89
43503;BME280;29098;48.184;16.298;2022-10-04T08:11:29;100017.25;;;13.17;73.55
43503;BME280;29098;48.184;16.298;2022-10-04T08:14:12;100017.25;;;13.32;71.88
43503;BME280;29098;48.184;16.298;2022-10-04T08:19:39;100023.44;;;13.39;71.49
43503;BME280;29098;48.184;16.298;2022-10-04T08:27:14;100008.31;;;13.48;70.64
43503;BME280;29098;48.184;16.298;2022-10-04T08:29:51;100006.94;;;13.52;70.53
43503;BME280;29098;48.184;16.298;2022-10-04T08:37:15;100009.50;;;13.46;70.72
43503;BME280;29098;48.184;16.298;2022-10-04T08:40:27;100010.94;;;13.63;70.69
43503;BME280;29098;48.184;16.298;2022-10-04T08:45:10;100013.88;;;13.68;70.34
43503;BME280;29098;48.184;16.298;2022-10-04T09:03:30;100017.94;;;13.86;69.68
43503;BME280;29098;48.184;16.298;2022-10-04T09:16:48;100029.09;;;13.81;70.04
43503;BME280;29098;48.184;16.298;2022-10-04T09:27:11;100035.31;;;14.10;68.96
43503;BME280;29098;48.184;16.298;2022-10-04T09:48:34;100031.00;;;14.97;65.52
43503;BME280;29098;48.184;16.298;2022-10-04T09:53:40;100029.22;;;15.04;66.06
43503;BME280;29098;48.184;16.298;2022-10-04T10:01:24;100034.28;;;15.34;62.75
43503;BME280;29098;48.184;16.298;2022-10-04T10:06:47;100036.72;;;15.36;62.80
43503;BME280;29098;48.184;16.298;2022-10-04T10:12:18;100039.38;;;15.29;63.05
43503;BME280;29098;48.184;16.298;2022-10-04T10:25:51;100044.91;;;15.76;62.17
43503;BME280;29098;48.184;16.298;2022-10-04T10:46:33;100044.84;;;15.56;62.40
43503;BME280;29098;48.184;16.298;2022-10-04T10:57:20;100057.69;;;16.01;61.41
43503;BME280;29098;48.184;16.298;2022-10-04T11:04:44;100061.44;;;16.27;61.81
43503;BME280;29098;48.184;16.298;2022-10-04T11:15:38;100053.31;;;16.76;59.32
43503;BME280;29098;48.184;16.298;2022-10-04T11:21:00;100052.69;;;16.80;58.22
43503;BME280;29098;48.184;16.298;2022-10-04T11:28:34;100041.84;;;16.75;57.64
43503;BME280;29098;48.184;16.298;2022-10-04T11:33:56;100039.97;;;16.96;58.30
43503;BME280;29098;48.184;16.298;2022-10-04T11:36:28;100030.34;;;17.15;56.83
43503;BME280;29098;48.184;16.298;2022-10-04T12:00:17;100028.91;;;16.99;57.25
43503;BME280;29098;48.184;16.298;2022-10-04T12:03:06;100035.06;;;17.06;57.11
43503;BME280;29098;48.184;16.298;2022-10-04T12:08:14;100028.41;;;17.49;55.99
43503;BME280;29098;48.184;16.298;2022-10-04T12:10:42;100032.28;;;17.53;54.30
43503;BME280;29098;48.184;16.298;2022-10-04T12:15:58;100027.84;;;17.34;55.39
43503;BME280;29098;48.184;16.298;2022-10-04T12:26:26;100016.97;;;18.78;52.26
43503;BME280;29098;48.184;16.298;2022-10-04T12:31:35;100023.72;;;18.29;51.83
43503;BME280;29098;48.184;16.298;2022-10-04T12:42:00;100024.94;;;17.49;53.23
43503;BME280;29098;48.184;16.298;2022-10-04T12:52:22;100031.16;;;17.22;55.32
43503;BME280;29098;48.184;16.298;2022-10-04T12:54:55;100029.41;;;17.62;54.32
43503;BME280;29098;48.184;16.298;2022-10-04T12:57:27;100031.88;;;18.34;51.93
43503;BME280;29098;48.184;16.298;2022-10-04T13:00:03;100021.78;;;19.13;49.54
43503;BME280;29098;48.184;16.298;2022-10-04T13:10:36;100021.59;;;21.03;44.21
43503;BME280;29098;48.184;16.298;2022-10-04T13:15:53;100009.28;;;22.48;40.65
43503;BME280;29098;48.184;16.298;2022-10-04T13:20:50;100002.66;;;23.79;38.07
43503;BME280;29098;48.184;16.298;2022-10-04T13:23:30;100006.31;;;24.23;36.68
43503;BME280;29098;48.184;16.298;2022-10-04T13:28:38;100017.59;;;23.42;38.50
43503;BME280;29098;48.184;16.298;2022-10-04T13:31:13;100021.34;;;22.62;39.60
43503;BME280;29098;48.184;16.298;2022-10-04T13:34:21;100025.91;;;23.18;38.65
43503;BME280;29098;48.184;16.298;2022-10-04T13:36:46;100026.41;;;23.15;38.00
43503;BME280;29098;48.184;16.298;2022-10-04T13:39:26;100023.28;;;23.23;38.02
43503;BME280;29098;48.184;16.298;2022-10-04T13:52:07;100024.50;;;20.00;44.25
43503;BME280;29098;48.184;16.298;2022-10-04T14:00:56;100018.91;;;20.79;41.95
43503;BME280;29098;48.184;16.298;2022-10-04T14:11:11;100031.19;;;22.74;39.39
43503;BME280;29098;48.184;16.298;2022-10-04T14:37:36;100012.53;;;20.92;41.34
43503;BME280;29098;48.184;16.298;2022-10-04T14:40:24;100016.78;;;20.34;42.77
43503;BME280;29098;48.184;16.298;2022-10-04T14:50:42;100017.09;;;24.60;35.22
43503;BME280;29098;48.184;16.298;2022-10-04T14:55:50;100007.84;;;25.42;31.71
43503;BME280;29098;48.184;16.298;2022-10-04T15:06:08;100007.34;;;25.46;31.45
43503;BME280;29098;48.184;16.298;2022-10-04T15:11:11;99999.13;;;25.20;32.84
43503;BME280;29098;48.184;16.298;2022-10-04T15:13:45;100007.16;;;24.61;33.76
43503;BME280;29098;48.184;16.298;2022-10-04T15:21:19;100003.19;;;22.52;37.57
43503;BME280;29098;48.184;16.298;2022-10-04T15:26:44;100009.25;;;20.66;42.32
43503;BME280;29098;48.184;16.298;2022-10-04T15:34:37;100004.44;;;19.03;47.12
43503;BME280;29098;48.184;16.298;2022-10-04T15:39:38;100009.84;;;18.46;50.28
43503;BME280;29098;48.184;16.298;2022-10-04T15:42:12;100007.28;;;18.32;50.06
43503;BME280;29098;48.184;16.298;2022-10-04T15:44:50;100016.88;;;18.08;50.64
43503;BME280;29098;48.184;16.298;2022-10-04T15:52:44;100028.28;;;17.31;54.62
43503;BME280;29098;48.184;16.298;2022-10-04T15:55:19;100028.13;;;17.05;56.07
43503;BME280;29098;48.184;16.298;2022-10-04T16:05:37;100037.09;;;16.43;60.20
43503;BME280;29098;48.184;16.298;2022-10-04T16:16:11;100044.69;;;15.78;63.63
43503;BME280;29098;48.184;16.298;2022-10-04T16:23:43;100056.34;;;14.99;66.32
43503;BME280;29098;48.184;16.298;2022-10-04T16:26:10;100058.50;;;14.89;67.35
43503;BME280;29098;48.184;16.298;2022-10-04T16:28:45;100054.84;;;14.68;68.96
43503;BME280;29098;48.184;16.298;2022-10-04T16:31:21;100055.78;;;14.82;69.08
43503;BME280;29098;48.184;16.298;2022-10-04T16:36:43;100060.91;;;14.62;69.85
43503;BME280;29098;48.184;16.298;2022-10-04T16:39:10;100059.75;;;14.49;70.52
43503;BME280;29098;48.184;16.298;2022-10-04T16:42:00;100063.38;;;14.05;72.88
43503;BME280;29098;48.184;16.298;2022-10-04T16:44:30;100063.50;;;13.96;73.54
43503;BME280;29098;48.184;16.298;2022-10-04T16:46:57;100066.47;;;14.45;71.71
43503;BME280;29098;48.184;16.298;2022-10-04T16:49:27;100074.31;;;14.54;71.36
43503;BME280;29098;48.184;16.298;2022-10-04T16:52:03;100071.41;;;14.48;71.06
43503;BME280;29098;48.184;16.298;2022-10-04T17:05:01;100096.09;;;14.12;72.26
43503;BME280;29098;48.184;16.298;2022-10-04T17:12:50;100103.53;;;14.38;71.81
43503;BME280;29098;48.184;16.298;2022-10-04T17:20:24;100107.66;;;13.29;76.06
43503;BME280;29098;48.184;16.298;2022-10-04T17:27:52;100103.84;;;13.08;77.60
43503;BME280;29098;48.184;16.298;2022-10-04T17:30:20;100107.66;;;12.91;78.60
43503;BME280;29098;48.184;16.298;2022-10-04T17:38:09;100104.44;;;12.57;80.98
43503;BME280;29098;48.184;16.298;2022-10-04T17:40:44;100105.44;;;12.56;81.39
43503;BME280;29098;48.184;16.298;2022-10-04T17:46:47;100108.81;;;12.41;82.61
43503;BME280;29098;48.184;16.298;2022-10-04T17:48:58;100114.03;;;12.26;83.83
43503;BME280;29098;48.184;16.298;2022-10-04T17:51:44;100116.41;;;12.13;84.82
43503;BME280;29098;48.184;16.298;2022-10-04T17:59:51;100116.50;;;12.28;84.66
43503;BME280;29098;48.184;16.298;2022-10-04T18:04:54;100122.22;;;12.00;86.76
43503;BME280;29098;48.184;16.298;2022-10-04T18:07:26;100119.31;;;11.78;88.08
43503;BME280;29098;48.184;16.298;2022-10-04T18:09:53;100118.19;;;11.72;88.53
43503;BME280;29098;48.184;16.298;2022-10-04T18:12:30;100125.06;;;11.82;88.45
43503;BME280;29098;48.184;16.298;2022-10-04T18:17:33;100134.38;;;11.69;89.26
43503;BME280;29098;48.184;16.298;2022-10-04T18:20:16;100137.06;;;11.53;90.41
43503;BME280;29098;48.184;16.298;2022-10-04T18:22:49;100131.59;;;11.54;90.04
43503;BME280;29098;48.184;16.298;2022-10-04T18:25:21;100129.44;;;11.58;90.44
43503;BME280;29098;48.184;16.298;2022-10-04T18:30:53;100127.16;;;11.46;91.34
43503;BME280;29098;48.184;16.298;2022-10-04T18:33:21;100135.69;;;11.65;90.46
43503;BME280;29098;48.184;16.298;2022-10-04T18:35:51;100133.72;;;11.67;90.36
43503;BME280;29098;48.184;16.298;2022-10-04T18:40:52;100136.38;;;11.59;90.76
43503;BME280;29098;48.184;16.298;2022-10-04T18:43:23;100135.69;;;11.65;90.33
43503;BME280;29098;48.184;16.298;2022-10-04T18:48:42;100143.66;;;11.48;91.90
43503;BME280;29098;48.184;16.298;2022-10-04T19:07:20;100148.31;;;11.30;93.11
43503;BME280;29098;48.184;16.298;2022-10-04T19:12:23;100157.41;;;11.19;93.82
43503;BME280;29098;48.184;16.298;2022-10-04T19:17:24;100155.56;;;11.36;92.48
43503;BME280;29098;48.184;16.298;2022-10-04T19:27:30;100161.31;;;11.31;92.46
43503;BME280;29098;48.184;16.298;2022-10-04T19:30:04;100169.25;;;11.31;92.26
43503;BME280;29098;48.184;16.298;2022-10-04T19:32:38;100173.38;;;11.26;92.38
43503;BME280;29098;48.184;16.298;2022-10-04T19:35:11;100168.25;;;11.16;93.35
43503;BME280;29098;48.184;16.298;2022-10-04T19:38:22;100171.72;;;10.91;95.16
43503;BME280;29098;48.184;16.298;2022-10-04T19:43:08;100176.66;;;10.94;95.39
43503;BME280;29098;48.184;16.298;2022-10-04T19:45:58;100176.19;;;11.07;94.42
43503;BME280;29098;48.184;16.298;2022-10-04T19:48:30;100179.47;;;10.93;95.46
43503;BME280;29098;48.184;16.298;2022-10-04T19:51:07;100180.63;;;10.90;94.97
43503;BME280;29098;48.184;16.298;2022-10-04T19:53:37;100187.88;;;10.88;95.39
43503;BME280;29098;48.184;16.298;2022-10-04T19:56:06;100185.72;;;10.92;94.74
43503;BME280;29098;48.184;16.298;2022-10-04T19:58:40;100181.44;;;10.91;94.92
43503;BME280;29098;48.184;16.298;2022-10-04T20:01:09;100191.31;;;10.72;95.60
43503;BME280;29098;48.184;16.298;2022-10-04T20:03:35;100189.81;;;10.61;96.77
43503;BME280;29098;48.184;16.298;2022-10-04T20:06:00;100194.38;;;10.51;97.35
43503;BME280;29098;48.184;16.298;2022-10-04T20:11:54;100196.34;;;10.49;97.09
43503;BME280;29098;48.184;16.298;2022-10-04T20:21:53;100203.50;;;10.22;98.44
43503;BME280;29098;48.184;16.298;2022-10-04T20:34:58;100212.19;;;9.87;100.00
43503;BME280;29098;48.184;16.298;2022-10-04T20:40:09;100210.31;;;10.06;99.26
43503;BME280;29098;48.184;16.298;2022-10-04T20:42:37;100214.44;;;10.09;98.78
43503;BME280;29098;48.184;16.298;2022-10-04T20:47:41;100234.06;;;10.14;98.76
43503;BME280;29098;48.184;16.298;2022-10-04T20:52:33;100221.25;;;9.93;99.46
43503;BME280;29098;48.184;16.298;2022-10-04T20:55:00;100227.75;;;9.99;99.33
43503;BME280;29098;48.184;16.298;2022-10-04T20:57:28;100232.16;;;9.98;99.01
43503;BME280;29098;48.184;16.298;2022-10-04T20:59:54;100231.50;;;9.70;100.00
43503;BME280;29098;48.184;16.298;2022-10-04T21:02:21;100235.00;;;9.52;100.00
43503;BME280;29098;48.184;16.298;2022-10-04T21:04:47;100237.84;;;9.41;100.00
43503;BME280;29098;48.184;16.298;2022-10-04T21:07:20;100239.34;;;9.62;100.00
43503;BME280;29098;48.184;16.298;2022-10-04T21:09:46;100243.00;;;9.69;100.00
43503;BME280;29098;48.184;16.298;2022-10-04T21:12:26;100239.47;;;9.78;99.89
43503;BME280;29098;48.184;16.298;2022-10-04T21:17:36;100237.44;;;9.72;100.00
43503;BME280;29098;48.184;16.298;2022-10-04T21:20:02;100239.28;;;9.53;100.00
43503;BME280;29098;48.184;16.298;2022-10-04T21:25:01;100236.78;;;9.52;100.00
43503;BME280;29098;48.184;16.298;2022-10-04T21:27:31;100235.28;;;9.49;100.00
43503;BME280;29098;48.184;16.298;2022-10-04T21:29:56;100236.66;;;9.53;100.00
43503;BME280;29098;48.184;16.298;2022-10-04T21:32:22;100229.28;;;9.39;100.00
43503;BME280;29098;48.184;16.298;2022-10-04T21:34:48;100228.78;;;9.35;100.00
43503;BME280;29098;48.184;16.298;2022-10-04T21:37:14;100232.31;;;9.44;100.00
43503;BME280;29098;48.184;16.298;2022-10-04T21:39:39;100235.69;;;9.36;100.00
43503;BME280;29098;48.184;16.298;2022-10-04T21:42:04;100241.25;;;9.33;100.00
43503;BME280;29098;48.184;16.298;2022-10-04T21:44:30;100245.38;;;9.36;100.00
43503;BME280;29098;48.184;16.298;2022-10-04T21:46:55;100249.97;;;9.34;100.00
43503;BME280;29098;48.184;16.298;2022-10-04T21:49:20;100244.09;;;9.22;100.00
43503;BME280;29098;48.184;16.298;2022-10-04T21:51:46;100228.63;;;9.18;100.00
43503;BME280;29098;48.184;16.298;2022-10-04T21:54:11;100232.38;;;9.16;100.00
43503;BME280;29098;48.184;16.298;2022-10-04T21:56:36;100239.75;;;9.12;100.00
43503;BME280;29098;48.184;16.298;2022-10-04T21:59:02;100243.56;;;9.18;100.00
43503;BME280;29098;48.184;16.298;2022-10-04T22:01:27;100246.34;;;9.16;100.00
43503;BME280;29098;48.184;16.298;2022-10-04T22:03:52;100244.19;;;9.12;100.00
43503;BME280;29098;48.184;16.298;2022-10-04T22:06:18;100243.28;;;9.03;100.00
43503;BME280;29098;48.184;16.298;2022-10-04T22:08:43;100239.47;;;8.97;100.00